Pagrindinis puslapis
METAR-TAF:

METAR-TAF

Oro uostai :

Jonšiopingas, Švedija

platuma: 57-46N, ilguma: 014-05E, Aukštis: 226 m

Dabartinis oras

Ataskaita buvo paskelbta 34 minutes, ne 02:20 UTC
Ramus vėjas
Temperatūra -2°C
Drėgmė 100%
Slėgis 1007 hPa
Matomumas 10 km arba daugiau

METAR: ESGJ 190220Z AUTO 00000KT 9999 FEW006/// SCT011/// OVC016/// M02/M02 Q1007

Laikas: 04:54 (02:54 UTC)

Prognozė

Ataskaita buvo paskelbta 24 minutes, ne 02:30 UTC
Prognozė galioja nuo 19 metu 03 UTC su 19 metu 12 UTC
Vėjas 5 kt iš Šiaurės/Šiaurės Rytų
Matomumas 10 km arba daugiau
Apsiniaukę ne aukštis 1700 ft
Tikimybė 40%
nuo 19 metu 03 UTC su 19 metu 06 UTC
Su prošvaistėmis ne aukštis 600 ft
Tikimybė 40%
nuo 19 metu 09 UTC su 19 metu 12 UTC
Matomumas: 3500 m
Su prošvaistėmis ne aukštis 1200 ft
sniegas, lietus,

TAF: ESGJ 190230Z 1903/1912 02005KT 9999 OVC017 PROB40 1903/1906 BKN006 PROB40 1909/1912 3500 -SNRA BKN012

Orai ataskaitas ir orų prognozės (METAR, TAF).

turimą stotys yra geltonos ir raudonos taškus žemėlapyje.

Perkelti pele per norėdami pamatyti stoties vardą.

Tada spustelėkite, norėdami matyti oro stebėjimo ir prognozės.

Norėdami pakeisti žemėlapį: spustelėkite ant žalios mygtukų su juodo kryžiaus žemyn,; žalią mygtuką su brūkšneliu, jei norite nutolinti; arba žalių rodyklių gretimoms žemėlapius.


METAR-TAF: